Map

Track Data

SID SEASON NUMBER BASIN SUBBASIN NAME ISO_TIME NATURE LAT LON WMO_WIND WMO_PRES WMO_AGENCY TRACK_TYPE DIST2LAND LANDFALL IFLAG USA_AGENCY USA_ATCF_ID USA_LAT USA_LON USA_RECORD USA_STATUS USA_WIND USA_PRES USA_SSHS USA_R34_NE USA_R34_SE USA_R34_SW USA_R34_NW USA_R50_NE USA_R50_SE USA_R50_SW USA_R50_NW USA_R64_NE USA_R64_SE USA_R64_SW USA_R64_NW USA_POCI USA_ROCI USA_RMW USA_EYE TOKYO_LAT TOKYO_LON TOKYO_GRADE TOKYO_WIND TOKYO_PRES TOKYO_R50_DIR TOKYO_R50_LONG TOKYO_R50_SHORT TOKYO_R30_DIR TOKYO_R30_LONG TOKYO_R30_SHORT TOKYO_LAND CMA_LAT CMA_LON CMA_CAT CMA_WIND CMA_PRES HKO_LAT HKO_LON HKO_CAT HKO_WIND HKO_PRES NEWDELHI_LAT NEWDELHI_LON NEWDELHI_GRADE NEWDELHI_WIND NEWDELHI_PRES NEWDELHI_CI NEWDELHI_DP NEWDELHI_POCI REUNION_LAT REUNION_LON REUNION_TYPE REUNION_WIND REUNION_PRES REUNION_TNUM REUNION_CI REUNION_RMW REUNION_R34_NE REUNION_R34_SE REUNION_R34_SW REUNION_R34_NW REUNION_R50_NE REUNION_R50_SE REUNION_R50_SW REUNION_R50_NW REUNION_R64_NE REUNION_R64_SE REUNION_R64_SW REUNION_R64_NW BOM_LAT BOM_LON BOM_TYPE BOM_WIND BOM_PRES BOM_TNUM BOM_CI BOM_RMW BOM_R34_NE BOM_R34_SE BOM_R34_SW BOM_R34_NW BOM_R50_NE BOM_R50_SE BOM_R50_SW BOM_R50_NW BOM_R64_NE BOM_R64_SE BOM_R64_SW BOM_R64_NW BOM_ROCI BOM_POCI BOM_EYE BOM_POS_METHOD BOM_PRES_METHOD NADI_LAT NADI_LON NADI_CAT NADI_WIND NADI_PRES WELLINGTON_LAT WELLINGTON_LON WELLINGTON_WIND WELLINGTON_PRES DS824_LAT DS824_LON DS824_STAGE DS824_WIND DS824_PRES TD9636_LAT TD9636_LON TD9636_STAGE TD9636_WIND TD9636_PRES TD9635_LAT TD9635_LON TD9635_WIND TD9635_PRES TD9635_ROCI NEUMANN_LAT NEUMANN_LON NEUMANN_CLASS NEUMANN_WIND NEUMANN_PRES MLC_LAT MLC_LON MLC_CLASS MLC_WIND MLC_PRES USA_GUST BOM_GUST BOM_GUST_PER REUNION_GUST REUNION_GUST_PER USA_SEAHGT USA_SEARAD_NE USA_SEARAD_SE USA_SEARAD_SW USA_SEARAD_NW STORM_SPEED STORM_DIR
2000366S09068 2001 114 SI MM ANDO 2000-12-31 06:00:00 TS -9.03333 67.7333 25 1002 reunion main 1642 1611 O____O______O_ jtwc_sh SH042001 -8.70000 67.4000 TD 30 -1 -9.70000 68.4000 2 25 1002 2.00000 2.00000 -8.70000 67.4000 TC 30 6 227
2000366S09068 2001 114 SI MM ANDO 2000-12-31 09:00:00 TS -9.23004 67.5184 main 1611 1580 P____P______P_ SH042001 -8.95004 67.2675 TD 25 -1 -9.79004 68.0200 2 25 1002 -8.95004 67.2675 TC 25 6 229
2000366S09068 2001 114 SI MM ANDO 2000-12-31 12:00:00 TS -9.43333 67.2667 25 1002 reunion main 1580 1542 O____O______O_ jtwc_sh SH042001 -9.20000 67.1000 TD 20 -1 -9.90000 67.6000 2 25 1002 2.00000 2.00000 -9.20000 67.1000 TC 20 7 234
2000366S09068 2001 114 SI MM ANDO 2000-12-31 15:00:00 TS -9.64743 66.9449 main 1535 1488 P____P______P_ SH042001 -9.44989 66.8599 TD 20 -1 -10.0425 67.1150 2 25 1002 -9.44989 66.8599 TC 20 8 239
2000366S09068 2001 114 SI MM ANDO 2000-12-31 18:00:00 TS -9.86667 66.5333 25 1002 reunion main 1481 1436 O____O______O_ jtwc_sh SH042001 -9.70000 66.5000 TD 20 -1 -10.2000 66.6000 2 25 1002 2.00000 2.00000 -9.70000 66.5000 TC 20 10 244
2000366S09068 2001 114 SI MM ANDO 2000-12-31 21:00:00 TS -10.0882 66.0450 main 1430 1379 P____P______P_ SH042001 -9.94994 66.0099 TD 22 -1 -10.3648 66.1150 2 25 1001 -9.94994 66.0099 TC 22 11 248
2000366S09068 2001 114 SI MM ANDO 2001-01-01 00:00:00 TS -10.3000 65.4667 25 1000 reunion main 1379 1316 O____O______O_ jtwc_sh SH042001 -10.2000 65.4000 TD 25 -1 -10.5000 65.6000 2 25 1000 2.00000 2.00000 -10.2000 65.4000 TC 25 13 252
2000366S09068 2001 114 SI MM ANDO 2001-01-01 03:00:00 TS -10.4985 64.7950 main 1316 1261 P____P______P_ SH042001 -10.4576 64.7000 TD 25 -1 -10.5801 64.9850 2 25 1000 -10.4576 64.7000 TC 25 14 254
2000366S09068 2001 114 SI MM ANDO 2001-01-01 06:00:00 TS -10.6667 64.1333 25 1000 reunion main 1255 1217 O____O______O_ jtwc_sh SH042001 -10.7000 64.0000 TD 25 -1 -10.6000 64.4000 2 25 1000 2.00000 2.00000 -10.7000 64.0000 TC 25 12 256
2000366S09068 2001 114 SI MM ANDO 2001-01-01 09:00:00 TS -10.8007 63.5883 main 1217 1186 P____P______P_ SH042001 -10.9299 63.4050 TD 25 -1 -10.5424 63.9549 2 25 1000 -10.9299 63.4050 TC 25 10 257
2000366S09068 2001 114 SI MM ANDO 2001-01-01 12:00:00 TS -10.9000 63.1333 25 1000 reunion main 1180 1150 O____O______O_ jtwc_sh SH042001 -11.1000 62.9000 TD 25 -1 -10.5000 63.6000 2 25 1000 2.00000 2.00000 -11.1000 62.9000 TC 25 9 258
2000366S09068 2001 114 SI MM ANDO 2001-01-01 15:00:00 TS -10.9866 62.7291 main 1150 1135 P____P______P_ SH042001 -11.1874 62.4549 TD 25 -1 -10.5849 63.2776 2 25 1000 -11.1874 62.4549 TC 25 7 260
2000366S09068 2001 114 SI MM ANDO 2001-01-01 18:00:00 TS -11.0333 62.4000 25 1000 reunion main 1135 1122 O____O______O_ jtwc_sh SH042001 -11.2000 62.1000 TD 25 -1 -10.7000 63.0000 2 25 1000 1.50000 2.00000 -11.2000 62.1000 TC 25 6 267
2000366S09068 2001 114 SI MM ANDO 2001-01-01 21:00:00 TS -11.0216 62.1199 main 1122 1113 P____P______P_ SH042001 -11.1574 61.8124 TD 25 -1 -10.7500 62.7350 2 25 1000 -11.1574 61.8124 TC 25 5 274
2000366S09068 2001 114 SI MM ANDO 2001-01-02 00:00:00 TS -11.0000 61.9000 25 1000 reunion main 1113 1104 O____O______O_ jtwc_sh SH042001 -11.1000 61.6000 TD 25 -1 -10.8000 62.5000 2 25 1000 2.00000 2.00000 -11.1000 61.6000 TC 25 4 269
2000366S09068 2001 114 SI MM ANDO 2001-01-02 03:00:00 TS -11.0258 61.7258 main 1104 1090 P____P______P_ SH042001 -11.0925 61.4350 TD 25 -1 -10.8924 62.3075 2 25 999 -11.0925 61.4350 TC 25 3 258
2000366S09068 2001 114 SI MM ANDO 2001-01-02 06:00:00 TS -11.0667 61.5667 25 999 reunion main 1090 1082 O____O______O_ jtwc_sh SH042001 -11.1000 61.3000 TD 25 -1 -11.0000 62.1000 2 25 999 2.00000 2.00000 -11.1000 61.3000 TC 25 4 259
2000366S09068 2001 114 SI MM ANDO 2001-01-02 09:00:00 TS -11.0950 61.3767 main 1082 1074 P____P______P_ SH042001 -11.0925 61.1575 TD 30 -1 -11.1000 61.8150 2 27 998 -11.0925 61.1575 TC 30 4 260
2000366S09068 2001 114 SI MM ANDO 2001-01-02 12:00:00 TS -11.1333 61.1667 30 997 reunion main 1074 1056 O____O______O_ jtwc_sh SH042001 -11.1000 61.0000 TS 35 0 -11.2000 61.5000 2 30 997 2.50000 2.50000 -11.1000 61.0000 TC 35 4 257
2000366S09068 2001 114 SI MM ANDO 2001-01-02 15:00:00 TS -11.1900 60.9433 main 1053 1035 P____P______P_ SH042001 -11.1350 60.8150 TS 37 0 -11.3000 61.2000 2 32 996 -11.1350 60.8150 TC 37 5 254
2000366S09068 2001 114 SI MM ANDO 2001-01-02 18:00:00 TS -11.2667 60.7000 35 995 reunion main 1035 1018 O____O______O_ jtwc_sh SH042001 -11.2000 60.6000 TS 40 0 -11.4000 60.9000 3 35 995 2.50000 2.50000 -11.2000 60.6000 TC 40 5 251
2000366S09068 2001 114 SI MM ANDO 2001-01-02 21:00:00 TS -11.3617 60.4383 main 1015 998 P____P______P_ SH042001 -11.2925 60.3575 TS 45 0 -11.5000 60.6000 3 37 993 -11.2925 60.3575 TC 45 6 249
2000366S09068 2001 114 SI MM ANDO 2001-01-03 00:00:00 TS -11.4667 60.1667 40 992 reunion main 998 979 O____O______O_ jtwc_sh SH042001 -11.4000 60.1000 TS 50 0 -11.6000 60.3000 3 40 992 3.00000 3.00000 -11.4000 60.1000 TC 50 6 250
2000366S09068 2001 114 SI MM ANDO 2001-01-03 03:00:00 TS -11.5592 59.8925 main 979 961 P____P______P_ SH042001 -11.4925 59.8425 TS 55 0 -11.7000 59.9850 3 45 988 -11.4850 59.8499 TC 55 6 249
2000366S09068 2001 114 SI MM ANDO 2001-01-03 06:00:00 TS -11.6667 59.6333 50 985 reunion main 961 946 O____O______O_ jtwc_sh SH042001 -11.6000 59.6000 TS 60 0 -11.8000 59.7000 3 50 985 3.50000 3.50000 -11.6000 59.6000 TC 60 5 243
2000366S09068 2001 114 SI MM ANDO 2001-01-03 09:00:00 TS -11.7966 59.4191 main 946 920 P____P______P_ SH042001 -11.7275 59.3999 TS 65 1 -11.8774 59.5149 3 55 980 -11.7850 59.3425 TC 62 5 235
2000366S09068 2001 114 SI MM ANDO 2001-01-03 12:00:00 TS -11.9667 59.2000 60 975 reunion main 920 893 O____O______O_ jtwc_sh SH042001 -11.9000 59.2000 TY 70 1 -12.0000 59.3000 3 60 975 4.00000 4.00000 -12.0000 59.1000 TC 65 6 232
2000366S09068 2001 114 SI MM ANDO 2001-01-03 15:00:00 TS -12.1775 58.9217 main 893 867 P____P______P_ SH042001 -12.1275 58.9650 TY 72 1 -12.2202 58.8927 3 60 974 -12.1849 58.9074 TC 70 7 230
2000366S09068 2001 114 SI MM ANDO 2001-01-03 18:00:00 TS -12.4333 58.6333 60 973 reunion main 867 831 O____O______O_ jtwc_sh SH042001 -12.4000 58.7000 TY 75 1 -12.5000 58.5000 3 60 973 4.00000 4.00000 -12.4000 58.7000 TC 75 8 224
2000366S09068 2001 114 SI MM ANDO 2001-01-03 21:00:00 TS -12.7208 58.3882 main 831 795 P____P______P_ SH042001 -12.6850 58.4074 TY 77 1 -12.7998 58.3423 3 65 969 -12.6775 58.4150 TC 77 8 219
2000366S09068 2001 114 SI MM ANDO 2001-01-04 00:00:00 TS -13.0333 58.1333 70 965 reunion main 795 761 O____O______O_ jtwc_sh SH042001 -13.0000 58.1000 TY 80 1 -13.1000 58.2000 4 70 965 4.50000 4.50000 -13.0000 58.1000 TC 80 9 221
2000366S09068 2001 114 SI MM ANDO 2001-01-04 03:00:00 TS -13.3625 57.8217 main 749 716 P____P______P_ SH042001 -13.3650 57.8000 TY 85 2 -13.3576 57.8650 4 72 962 -13.3650 57.8000 TC 85 9 224
2000366S09068 2001 114 SI MM ANDO 2001-01-04 06:00:00 TS -13.6667 57.5000 75 960 reunion main 716 694 O____O______O_ jtwc_sh SH042001 -13.7000 57.5000 TY 90 2 -13.6000 57.5000 4 75 960 5.00000 5.00000 -13.7000 57.5000 TC 90 8 229
2000366S09068 2001 114 SI MM ANDO 2001-01-04 09:00:00 TS -13.8783 57.2065 main 694 673 P____P______P_ SH042001 -13.9000 57.1923 TY 95 2 -13.8349 57.2348 4 80 955 -13.9000 57.1923 TC 95 7 232
2000366S09068 2001 114 SI MM ANDO 2001-01-04 12:00:00 TS -14.1000 56.9333 85 950 reunion main 674 643 O____O______O_ jtwc_sh SH042001 -14.1000 56.9000 TY 100 3 -14.1000 57.0000 4 85 950 5.50000 5.50000 -14.1000 56.9000 TC 100 8 223
2000366S09068 2001 114 SI MM ANDO 2001-01-04 15:00:00 TS -14.4200 56.6758 main 643 602 P____P______P_ SH042001 -14.4200 56.6424 TY 102 3 -14.4200 56.7425 4 90 942 -14.4200 56.6424 TC 102 9 215
2000366S09068 2001 114 SI MM ANDO 2001-01-04 18:00:00 TS -14.8000 56.4333 95 935 reunion main 604 565 O____O______O_ jtwc_sh SH042001 -14.8000 56.4000 TY 105 3 -14.8000 56.5000 4 95 935 5.50000 5.50000 -14.8000 56.4000 TC 105 9 210
2000366S09068 2001 114 SI MM ANDO 2001-01-04 21:00:00 TS -15.2141 56.1974 main 565 527 P____P______P_ SH042001 -15.2000 56.1425 TY 107 3 -15.2424 56.3073 4 95 935 -15.2000 56.1425 TC 107 10 208
2000366S09068 2001 114 SI MM ANDO 2001-01-05 00:00:00 TS -15.6333 55.9667 95 935 reunion main 527 492 O____O______O_ jtwc_sh SH042001 -15.6000 55.9000 TY 110 3 -15.7000 56.1000 4 95 935 5.00000 5.50000 -15.6000 55.9000 TC 110 9 209
2000366S09068 2001 114 SI MM ANDO 2001-01-05 03:00:00 TS -16.0075 55.7357 main 496 470 P____P______P_ SH042001 -15.9499 55.6998 TY 112 3 -16.1225 55.8076 4 92 937 -15.9499 55.6998 TC 112 9 212
2000366S09068 2001 114 SI MM ANDO 2001-01-05 06:00:00 TS -16.3667 55.5000 90 940 reunion main 464 445 O____O______O_ jtwc_sh SH042001 -16.3000 55.5000 TY 115 4 -16.5000 55.5000 4 90 940 5.50000 5.50000 -16.3000 55.5000 TC 115 9 213
2000366S09068 2001 114 SI MM ANDO 2001-01-05 09:00:00 TS -16.7359 55.2375 main 451 426 P____P______P_ SH042001 -16.7000 55.2426 TY 115 4 -16.8075 55.2274 4 90 940 -16.7000 55.2426 TC 115 9 213
2000366S09068 2001 114 SI MM ANDO 2001-01-05 12:00:00 TS -17.1000 55.0000 90 940 reunion main 426 404 O____O______O_ jtwc_sh SH042001 -17.1000 55.0000 TY 115 4 -17.1000 55.0000 4 90 940 5.00000 5.50000 -17.1000 55.0000 TC 115 8 207
2000366S09068 2001 114 SI MM ANDO 2001-01-05 15:00:00 TS -17.4524 54.8498 main 395 363 P____P______P_ SH042001 -17.4574 54.8497 TY 117 4 -17.4424 54.8498 4 92 937 -17.4574 54.8497 TC 117 8 202
2000366S09068 2001 114 SI MM ANDO 2001-01-05 18:00:00 TS -17.8000 54.7000 95 935 reunion main 363 335 O____O______O_ jtwc_sh SH042001 -17.8000 54.7000 TY 120 4 -17.8000 54.7000 4 95 935 5.50000 5.50000 -17.8000 54.7000 TC 120 8 208
2000366S09068 2001 114 SI MM ANDO 2001-01-05 21:00:00 TS -18.1375 54.4600 main 335 302 P____P______P_ SH042001 -18.1350 54.4575 TY 120 4 -18.1425 54.4650 4 95 935 -18.1350 54.4575 TC 120 9 214
2000366S09068 2001 114 SI MM ANDO 2001-01-06 00:00:00 TS -18.5000 54.2000 95 935 reunion main 302 271 O____O______O_ jtwc_sh SH042001 -18.5000 54.2000 TY 120 4 -18.5000 54.2000 4 95 935 5.50000 5.50000 -18.5000 54.2000 TC 120 9 211
2000366S09068 2001 114 SI MM ANDO 2001-01-06 03:00:00 TS -18.9258 53.9683 main 271 246 P____P______P_ SH042001 -18.9425 53.9850 TY 120 4 -18.8925 53.9350 4 100 930 -18.9425 53.9850 TC 120 10 205
2000366S09068 2001 114 SI MM ANDO 2001-01-06 06:00:00 TS -19.3667 53.7667 105 925 reunion main 237 221 O____O______O_ jtwc_sh SH042001 -19.4000 53.8000 TY 120 4 -19.3000 53.7000 4 105 925 6.00000 6.00000 -19.4000 53.8000 TC 120 9 202
2000366S09068 2001 114 SI MM ANDO 2001-01-06 09:00:00 TS -19.7741 53.6115 main 221 209 P____P______P_ SH042001 -19.8149 53.6498 TY 120 4 -19.6924 53.5348 4 105 925 -19.8149 53.6498 TC 120 9 199
2000366S09068 2001 114 SI MM ANDO 2001-01-06 12:00:00 TS -20.1667 53.4667 105 925 reunion main 203 202 O____O______O_ jtwc_sh SH042001 -20.2000 53.5000 TY 120 4 -20.1000 53.4000 4 105 925 6.00000 6.00000 -20.2000 53.5000 TC 120 8 201
2000366S09068 2001 114 SI MM ANDO 2001-01-06 15:00:00 TS -20.5575 53.2883 main 205 205 P____P______P_ SH042001 -20.5575 53.3074 TY 120 4 -20.5575 53.2500 4 105 925 -20.5575 53.3074 TC 120 8 204
2000366S09068 2001 114 SI MM ANDO 2001-01-06 18:00:00 TS -20.9333 53.1000 105 925 reunion main 219 218 O____O______O_ jtwc_sh SH042001 -20.9000 53.1000 TY 120 4 -21.0000 53.1000 4 105 925 6.00000 6.00000 -20.9000 53.1000 TC 120 8 205
2000366S09068 2001 114 SI MM ANDO 2001-01-06 21:00:00 TS -21.2833 52.9190 main 239 239 P____P______P_ SH042001 -21.2500 52.8999 TY 117 4 -21.3500 52.9573 4 105 925 -21.2500 52.8999 TC 117 8 206
2000366S09068 2001 114 SI MM ANDO 2001-01-07 00:00:00 TS -21.6333 52.7333 105 925 reunion main 264 264 O____O______O_ jtwc_sh SH042001 -21.6000 52.7000 TY 115 4 -21.7000 52.8000 4 105 925 5.50000 6.00000 -21.6000 52.7000 TC 115 8 207
2000366S09068 2001 114 SI MM ANDO 2001-01-07 03:00:00 TS -22.0167 52.5234 main 296 296 P____P______P_ SH042001 -21.9425 52.4850 TY 112 3 -22.1650 52.6002 4 102 927 -21.9425 52.4850 TC 112 9 206
2000366S09068 2001 114 SI MM ANDO 2001-01-07 06:00:00 TS -22.4000 52.3333 100 930 reunion main 332 332 O____O______O_ jtwc_sh SH042001 -22.3000 52.3000 TY 110 3 -22.6000 52.4000 4 100 930 5.00000 6.00000 -22.3000 52.3000 TC 110 8 202
2000366S09068 2001 114 SI MM ANDO 2001-01-07 09:00:00 TS -22.7675 52.2040 main 360 360 P____P______P_ SH042001 -22.7075 52.1849 TY 107 3 -22.8875 52.2423 4 95 935 -22.7075 52.1849 TC 107 7 197
2000366S09068 2001 114 SI MM ANDO 2001-01-07 12:00:00 TS -23.1000 52.1000 90 940 reunion main 385 385 O____O______O_ jtwc_sh SH042001 -23.1000 52.1000 TY 105 3 -23.1000 52.1000 4 90 940 4.50000 5.50000 -23.1000 52.1000 TC 105 7 197
2000366S09068 2001 114 SI MM ANDO 2001-01-07 15:00:00 TS -23.3966 51.9933 main 412 412 P____P______P_ SH042001 -23.4375 52.0074 TY 102 3 -23.3149 51.9649 4 87 945 -23.4375 52.0074 TC 102 6 202
2000366S09068 2001 114 SI MM ANDO 2001-01-07 18:00:00 TS -23.6333 51.8667 85 950 reunion main 425 409 O____O______O_ jtwc_sh SH042001 -23.7000 51.9000 TY 100 3 -23.5000 51.8000 4 85 950 4.00000 5.50000 -23.7000 51.9000 TC 100 5 214
2000366S09068 2001 114 SI MM ANDO 2001-01-07 21:00:00 TS -23.8008 51.6958 main 409 390 P____P______P_ SH042001 -23.8725 51.7649 TY 95 2 -23.6576 51.5575 4 80 955 -23.8725 51.7649 TC 95 5 228
2000366S09068 2001 114 SI MM ANDO 2001-01-08 00:00:00 TS -23.9333 51.5000 75 960 reunion main 390 372 O____O______O_ jtwc_sh SH042001 -24.0000 51.6000 TY 90 2 -23.8000 51.3000 4 75 960 3.50000 5.00000 -24.0000 51.6000 TC 90 5 234
2000366S09068 2001 114 SI MM ANDO 2001-01-08 03:00:00 TS -24.0734 51.2900 main 374 357 P____P______P_ SH042001 -24.1425 51.4000 TY 85 2 -23.9350 51.0700 4 70 965 -24.1425 51.4000 TC 85 5 230
2000366S09068 2001 114 SI MM ANDO 2001-01-08 06:00:00 TS -24.2333 51.1000 65 970 reunion main 357 350 O____O______O_ jtwc_sh SH042001 -24.3000 51.2000 TY 80 1 -24.1000 50.9000 4 65 970 3.50000 4.50000 -24.3000 51.2000 TC 80 5 220
2000366S09068 2001 114 SI MM ANDO 2001-01-08 09:00:00 TS -24.4275 50.9608 main 353 347 P____P______P_ SH042001 -24.4775 51.0275 TY 75 1 -24.3275 50.8274 4 60 975 -24.4775 51.0275 TC 75 5 206
2000366S09068 2001 114 SI MM ANDO 2001-01-08 12:00:00 TS -24.6667 50.8667 55 980 reunion main 352 343 O____O______O_ jtwc_sh SH042001 -24.7000 50.9000 TY 70 1 -24.6000 50.8000 3 55 980 3.00000 4.00000 -24.7000 50.9000 TC 70 5 195
2000366S09068 2001 114 SI MM ANDO 2001-01-08 15:00:00 TS -24.9416 50.8091 main 348 348 P____P______P_ SH042001 -24.9775 50.8349 TY 65 1 -24.8700 50.7574 3 52 982 -24.9775 50.8349 TC 65 6 188
2000366S09068 2001 114 SI MM ANDO 2001-01-08 18:00:00 TS -25.2667 50.7667 50 985 reunion main 363 356 O____O______O_ jtwc_sh SH042001 -25.3000 50.8000 TS 60 0 -25.2000 50.7000 3 50 985 3.00000 3.50000 -25.3000 50.8000 TC 60 7 188
2000366S09068 2001 114 SI MM ANDO 2001-01-08 21:00:00 TS -25.6400 50.6976 main 363 363 P____P______P_ SH042001 -25.6425 50.7500 TS 57 0 -25.6350 50.5927 3 50 985 -25.6425 50.7500 TC 57 8 189
2000366S09068 2001 114 SI MM ANDO 2001-01-09 00:00:00 TS -26.0333 50.6333 50 985 reunion main 368 368 O____O______O_ jtwc_sh SH042001 -26.0000 50.7000 TS 55 0 -26.1000 50.5000 3 50 985 3.00000 3.50000 -26.0000 50.7000 TC 55 8 188
2000366S09068 2001 114 SI MM ANDO 2001-01-09 03:00:00 TS -26.3975 50.5875 main 383 383 P____P______P_ SH042001 -26.3425 50.6425 TS 50 0 -26.5075 50.4774 3 50 985 -26.3425 50.6425 TC 50 7 185
2000366S09068 2001 114 SI MM ANDO 2001-01-09 06:00:00 TS -26.7667 50.5667 50 985 reunion main 403 403 O____O______O_ jtwc_sh SH042001 -26.7000 50.6000 TS 45 0 -26.9000 50.5000 3 50 985 3.00000 3.50000 -26.7000 50.6000 TC 45 8 0
2000366S09068 2001 114 SI MM ANDO 2001-01-09 09:00:00 TS -27.1642 50.5659 main 426 426 P____P______P_ SH042001 -27.1000 50.5776 TS 42 0 -27.2925 50.5425 3 47 986 -27.1000 50.5776 TC 42 8 177
2000366S09068 2001 114 SI MM ANDO 2001-01-09 12:00:00 TS -27.5667 50.6000 45 988 reunion main 453 453 O____O______O_ jtwc_sh SH042001 -27.5000 50.6000 TS 40 0 -27.7000 50.6000 3 45 988 2.50000 3.00000 -27.5000 50.6000 TC 40 8 175
2000366S09068 2001 114 SI MM ANDO 2001-01-09 15:00:00 TS -27.9549 50.6510 main 489 489 P____P______P_ SH042001 -27.8650 50.6700 TS 37 0 -28.1349 50.6131 3 45 989 -27.8650 50.6700 TC 37 8 169
2000366S09068 2001 114 SI MM ANDO 2001-01-09 18:00:00 TS -28.3333 50.7667 45 990 reunion main 519 519 O____O______O_ jtwc_sh SH042001 -28.2000 50.8000 TS 35 0 -28.6000 50.7000 3 45 990 2.00000 3.00000 -28.2000 50.8000 TC 35 7 160
2000366S09068 2001 114 SI MM ANDO 2001-01-09 21:00:00 TS -28.6548 50.9434 main 557 557 P____P______P_ SH042001 -28.4322 50.9340 TS 32 -1 -29.1001 50.9622 3 45 991 -28.4322 50.9340 TC 32 9 152
2000366S09068 2001 114 SI MM ANDO 2001-01-10 00:00:00 MX -29.1200 51.2400 45 992 reunion main 609 609 O____O______O_ jtwc_sh SH042001 -28.8000 51.2000 TD 30 -1 -29.6000 51.3000 5 45 992 9.90000 -28.8000 51.2000 TC 30 13 152
2000366S09068 2001 114 SI MM ANDO 2001-01-10 03:00:00 MX -29.7779 51.6409 main 693 693 P____P______P_ SH042001 -29.4984 51.6815 TD 27 -1 -30.0574 51.6003 5 45 992 -29.4984 51.6815 TC 27 15 153
2000366S09068 2001 114 SI MM ANDO 2001-01-10 06:00:00 MX -30.4667 52.0333 45 992 reunion main 777 777 O____O______O_ jtwc_sh SH042001 -30.4000 52.3000 TD 25 -1 -30.5000 51.9000 5 45 992 9.90000 -30.4000 52.3000 TC 25 13 156
2000366S09068 2001 114 SI MM ANDO 2001-01-10 09:00:00 ET -30.9351 52.2447 main 823 823 _____P________ SH042001 TD -1 -30.9351 52.2447 5 45 992 TC 10 157
2000366S09068 2001 114 SI MM ANDO 2001-01-10 12:00:00 ET -31.4000 52.5000 45 992 reunion main 885 885 _____O________ -31.4000 52.5000 5 45 992 9.90000 10 166
2000366S09068 2001 114 SI MM ANDO 2001-01-10 15:00:00 ET -31.9499 52.5309 main 929 929 _____P________ -31.9499 52.5309 5 42 993 11 180
2000366S09068 2001 114 SI MM ANDO 2001-01-10 18:00:00 ET -32.5000 52.5000 40 994 reunion main 983 983 _____O________ -32.5000 52.5000 5 40 994 9.90000 10 177
2000366S09068 2001 114 SI MM ANDO 2001-01-10 21:00:00 ET -32.9800 52.5996 main 1035 1035 _____P________ -32.9800 52.5996 5 40 994 9 170
2000366S09068 2001 114 SI MM ANDO 2001-01-11 00:00:00 ET -33.4000 52.7000 40 995 reunion main 1078 1078 _____O________ -33.4000 52.7000 5 40 995 9.90000 8 174
2000366S09068 2001 114 SI MM ANDO 2001-01-11 03:00:00 ET -33.7725 52.7078 main 1115 1115 _____P________ -33.7725 52.7078 5 40 995 7 0
2000366S09068 2001 114 SI MM ANDO 2001-01-11 06:00:00 ET -34.1000 52.7000 40 995 reunion main 1144 1144 _____O________ -34.1000 52.7000 5 40 995 9.90000 7 179
2000366S09068 2001 114 SI MM ANDO 2001-01-11 09:00:00 ET -34.4450 52.7275 main 1172 1172 _____P________ -34.4450 52.7275 5 40 995 6 172
2000366S09068 2001 114 SI MM ANDO 2001-01-11 12:00:00 ET -34.7000 52.8000 40 995 reunion main 1206 1206 _____O________ -34.7000 52.8000 5 40 995 9.90000 4 153
2000366S09068 2001 114 SI MM ANDO 2001-01-11 15:00:00 ET -34.8176 52.9575 main 1225 1225 _____P________ -34.8176 52.9575 5 37 996 3 112
2000366S09068 2001 114 SI MM ANDO 2001-01-11 18:00:00 ET -34.8000 53.1000 35 998 reunion main 1229 1220 _____O________ -34.8000 53.1000 5 35 998 9.90000 2 51
2000366S09068 2001 114 SI MM ANDO 2001-01-11 21:00:00 ET -34.6950 53.1376 main 1220 1201 _____P________ -34.6950 53.1376 5 35 999 3 0
2000366S09068 2001 114 SI MM ANDO 2001-01-12 00:00:00 ET -34.5000 53.1000 35 1000 reunion main 1201 1182 _____O________ -34.5000 53.1000 5 35 1000 9.90000 4 348
2000366S09068 2001 114 SI MM ANDO 2001-01-12 03:00:00 ET -34.3174 53.0456 main 1177 1144 _____P________ -34.3174 53.0456 5 35 1001 5 342
2000366S09068 2001 114 SI MM ANDO 2001-01-12 06:00:00 ET -34.0000 52.9000 35 1002 reunion main 1144 1087 _____O________ -34.0000 52.9000 5 35 1002 9.90000 9 341
2000366S09068 2001 114 SI MM ANDO 2001-01-12 09:00:00 ET -33.4446 52.6753 main 1078 1001 _____P________ -33.4446 52.6753 5 32 1003 13 337
2000366S09068 2001 114 SI MM ANDO 2001-01-12 12:00:00 ET -32.8000 52.3000 30 1004 reunion main 1001 929 _____O________ -32.8000 52.3000 5 30 1004 9.90000 14 328
2000366S09068 2001 114 SI MM ANDO 2001-01-12 15:00:00 ET -32.2347 51.7753 main 920 838 _____P________ -32.2347 51.7753 5 27 1005 15 317
2000366S09068 2001 114 SI MM ANDO 2001-01-12 18:00:00 TS -31.7000 51.1000 25 1006 reunion main 838 756 _____O________ -31.7000 51.1000 6 25 1006 9.90000 16 310
2000366S09068 2001 114 SI MM ANDO 2001-01-12 21:00:00 TS -31.1936 50.3235 main 752 668 _____P________ -31.1936 50.3235 6 1007 17 306
2000366S09068 2001 114 SI MM ANDO 2001-01-13 00:00:00 TS -30.7000 49.5000 1008 reunion main 668 _____O________ -30.7000 49.5000 6 1008 9.90000 17 305

About IBTrACS Database

This database is a web-friendly format of International Best Track Archive for Climate Stewardship (IBTrACS), a global best track data archive curated by NOAA dating back to 1842.

Updated: 2021-12-03